Time;durP1;ratioP1;P1;durP2;ratioP2;P2;SDS_P1;SDS_P2;PMS_P1;PMS_P2;Temp;Humidity;BMP_temperature;BMP_pressure;BME280_temperature;BME280_humidity;BME280_pressure;Samples;Min_cycle;Max_cycle;Signal;HPM_P1;HPM_P2
2022/03/24 00:00:30;;;;;;;8.70;3.65;;;12.00;27.30;;;;;;5076808;28;20056;-78
2022/03/24 00:02:57;;;;;;;4.95;3.13;;;12.00;27.30;;;;;;5068059;28;20120;-78
2022/03/24 00:05:25;;;;;;;4.88;3.20;;;11.90;27.30;;;;;;5063703;28;20056;-77
2022/03/24 00:07:52;;;;;;;6.30;3.53;;;12.00;27.10;;;;;;5073160;28;20061;-78
2022/03/24 00:10:18;;;;;;;8.52;3.83;;;12.00;27.30;;;;;;5070088;28;20064;-78
2022/03/24 00:12:45;;;;;;;7.10;3.10;;;12.00;27.60;;;;;;5069597;28;20061;-78
2022/03/24 00:15:12;;;;;;;5.40;3.40;;;12.10;27.10;;;;;;5081451;28;20056;-78
2022/03/24 00:17:39;;;;;;;7.38;3.92;;;12.00;27.00;;;;;;5073939;28;20563;-78
2022/03/24 00:20:06;;;;;;;;;;;12.00;27.10;;;;;;5074506;28;20056;-79
2022/03/24 00:22:33;;;;;;;;;;;12.10;27.10;;;;;;5080126;28;20457;-77
2022/03/24 00:25:00;;;;;;;6.57;3.45;;;12.10;27.00;;;;;;5071558;28;19970;-79
2022/03/24 00:27:27;;;;;;;;;;;12.00;27.10;;;;;;5067942;28;20062;-78
2022/03/24 00:29:54;;;;;;;;;;;12.00;27.00;;;;;;5063130;28;19920;-78
2022/03/24 00:32:21;;;;;;;;;;;12.00;27.00;;;;;;5066841;28;19925;-77
2022/03/24 00:34:48;;;;;;;;;;;12.00;27.00;;;;;;5054783;28;19966;-78
2022/03/24 00:37:15;;;;;;;5.93;3.15;;;12.10;27.00;;;;;;5061608;28;19979;-77
2022/03/24 00:39:42;;;;;;;3.72;3.33;;;12.00;27.20;;;;;;5066932;28;20061;-78
2022/03/24 00:42:11;;;;;;;3.45;3.03;;;12.00;27.00;;;;;;5055897;28;20053;-79
2022/03/24 00:44:42;;;;;;;5.90;3.22;;;12.00;27.00;;;;;;5072740;28;20083;-77
2022/03/24 00:47:10;;;;;;;4.78;3.25;;;12.00;27.00;;;;;;5068636;28;20052;-78
2022/03/24 00:49:38;;;;;;;5.53;2.90;;;11.90;27.20;;;;;;5075905;28;20052;-78
2022/03/24 00:52:05;;;;;;;;;;;12.00;27.00;;;;;;5071663;28;20061;-78
2022/03/24 00:54:32;;;;;;;8.20;3.53;;;12.00;27.30;;;;;;5072934;28;19944;-77
2022/03/24 00:57:01;;;;;;;3.72;2.75;;;11.90;27.20;;;;;;5065940;28;20121;-78
2022/03/24 00:59:28;;;;;;;4.55;2.80;;;11.90;27.00;;;;;;5079654;28;20505;-77
2022/03/24 01:01:55;;;;;;;;;;;11.80;27.40;;;;;;5061405;28;20053;-78
2022/03/24 01:04:22;;;;;;;;;;;11.90;27.10;;;;;;5069044;28;20406;-78
2022/03/24 01:06:49;;;;;;;;;;;11.90;27.00;;;;;;5074971;28;19925;-79
2022/03/24 01:09:16;;;;;;;;;;;12.00;27.00;;;;;;5077206;28;21479;-78
2022/03/24 01:11:43;;;;;;;4.45;2.90;;;12.00;27.00;;;;;;5081633;28;19921;-79
2022/03/24 01:14:10;;;;;;;;;;;12.00;27.00;;;;;;5085238;28;20056;-79
2022/03/24 01:16:36;;;;;;;;;;;12.00;27.00;;;;;;5077645;28;20205;-78
2022/03/24 01:19:04;;;;;;;;;;;11.90;27.00;;;;;;5082991;28;19927;-78
2022/03/24 01:21:31;;;;;;;;;;;11.90;27.00;;;;;;5073436;28;19925;-77
2022/03/24 01:23:59;;;;;;;;;;;11.90;27.00;;;;;;5076617;28;20038;-78
2022/03/24 01:26:26;;;;;;;;;;;11.80;27.00;;;;;;5075170;28;19928;-78
2022/03/24 01:28:53;;;;;;;;;;;11.80;26.90;;;;;;5097703;28;19927;-78
2022/03/24 01:31:20;;;;;;;4.22;2.60;;;11.80;27.20;;;;;;5063110;28;19968;-79
2022/03/24 01:33:47;;;;;;;4.25;2.33;;;11.80;27.00;;;;;;5068455;28;20060;-77
2022/03/24 01:36:16;;;;;;;;;;;11.70;27.20;;;;;;5067385;28;20064;-78
2022/03/24 01:38:43;;;;;;;;;;;11.70;27.30;;;;;;5070554;28;19924;-78
2022/03/24 01:41:10;;;;;;;;;;;11.70;27.30;;;;;;5088479;28;19973;-78
2022/03/24 01:43:36;;;;;;;;;;;11.70;27.40;;;;;;5066659;28;19971;-78
2022/03/24 01:46:04;;;;;;;;;;;11.70;27.10;;;;;;5078333;28;19967;-79
2022/03/24 01:48:32;;;;;;;;;;;11.60;27.10;;;;;;5069634;28;20454;-78
2022/03/24 01:50:59;;;;;;;;;;;11.70;27.10;;;;;;5072125;28;19932;-78
2022/03/24 01:53:26;;;;;;;;;;;11.70;27.90;;;;;;5063579;28;19939;-78
2022/03/24 01:55:54;;;;;;;;;;;11.70;27.00;;;;;;5062505;28;20282;-78
2022/03/24 01:58:22;;;;;;;;;;;11.70;27.10;;;;;;5078619;28;19925;-78
2022/03/24 02:00:48;;;;;;;;;;;11.60;27.60;;;;;;5081000;28;19924;-78
2022/03/24 02:03:16;;;;;;;;;;;11.60;27.20;;;;;;5068388;28;20409;-78
2022/03/24 02:05:43;;;;;;;;;;;11.60;27.30;;;;;;5060861;28;20385;-78
2022/03/24 02:08:10;;;;;;;;;;;11.60;27.40;;;;;;5070780;28;19928;-78
2022/03/24 02:10:37;;;;;;;;;;;11.50;27.30;;;;;;5066236;28;20396;-78
2022/03/24 02:13:04;;;;;;;;;;;11.60;27.20;;;;;;5064278;28;19932;-78
2022/03/24 02:15:31;;;;;;;;;;;11.50;27.40;;;;;;5058192;28;20292;-78
2022/03/24 02:17:58;;;;;;;;;;;11.50;27.30;;;;;;5058483;28;20388;-79
2022/03/24 02:20:28;;;;;;;;;;;11.50;27.30;;;;;;5058348;28;20420;-78
2022/03/24 02:22:55;;;;;;;;;;;11.50;27.10;;;;;;5075053;28;20058;-78
2022/03/24 02:25:23;;;;;;;;;;;11.50;28.30;;;;;;5073248;28;19947;-77
2022/03/24 02:27:55;;;;;;;;;;;11.50;27.20;;;;;;5058807;28;20288;-77
2022/03/24 02:30:24;;;;;;;;;;;11.50;27.30;;;;;;5058812;28;19974;-78
2022/03/24 02:32:51;;;;;;;;;;;11.40;27.30;;;;;;5074501;28;20347;-79
2022/03/24 02:35:18;;;;;;;;;;;11.50;27.30;;;;;;5084469;28;19928;-77
2022/03/24 02:37:45;;;;;;;;;;;11.40;27.30;;;;;;5059348;28;19925;-79
2022/03/24 02:40:13;;;;;;;;;;;11.50;27.20;;;;;;5080633;28;19932;-78
2022/03/24 02:42:39;;;;;;;;;;;11.40;27.30;;;;;;5067725;28;19924;-78
2022/03/24 02:45:10;;;;;;;;;;;11.30;27.50;;;;;;5064146;28;19928;-78
2022/03/24 02:47:37;;;;;;;;;;;11.30;27.40;;;;;;5067160;28;19996;-79
2022/03/24 02:50:04;;;;;;;;;;;11.40;27.50;;;;;;5070213;28;20408;-78
2022/03/24 02:52:31;;;;;;;;;;;11.40;27.50;;;;;;5073369;28;19955;-79
2022/03/24 02:54:58;;;;;;;;;;;11.30;27.30;;;;;;5070682;28;19925;-78
2022/03/24 02:57:25;;;;;;;;;;;11.30;27.40;;;;;;5069262;28;19924;-79
2022/03/24 02:59:52;;;;;;;;;;;11.40;27.30;;;;;;5062016;28;19968;-78
2022/03/24 03:02:18;;;;;;;;;;;11.40;27.30;;;;;;5076609;28;19931;-79
2022/03/24 03:04:49;;;;;;;;;;;11.40;27.30;;;;;;5071906;28;19928;-78
2022/03/24 03:07:17;;;;;;;;;;;11.40;27.40;;;;;;5060553;28;19971;-79
2022/03/24 03:09:44;;;;;;;;;;;11.30;27.40;;;;;;5061579;28;19928;-78
2022/03/24 03:12:11;;;;;;;;;;;11.20;27.70;;;;;;5077088;28;19936;-78
2022/03/24 03:14:39;;;;;;;;;;;11.30;27.60;;;;;;5065151;28;19984;-78
2022/03/24 03:17:06;;;;;;;;;;;11.30;27.30;;;;;;5070645;28;19928;-78
2022/03/24 03:19:34;;;;;;;;;;;11.30;27.30;;;;;;5073255;28;19926;-77
2022/03/24 03:22:01;;;;;;;;;;;11.30;27.50;;;;;;5071847;28;19925;-78
2022/03/24 03:24:28;;;;;;;;;;;11.30;27.30;;;;;;5078905;28;19948;-79
2022/03/24 03:26:55;;;;;;;;;;;11.30;27.30;;;;;;5064242;28;20458;-78
2022/03/24 03:29:24;;;;;;;;;;;11.30;27.30;;;;;;5073298;28;19924;-79
2022/03/24 03:31:54;;;;;;;;;;;11.20;27.40;;;;;;5072545;28;19924;-78
2022/03/24 03:34:24;;;;;;;;;;;11.20;27.30;;;;;;5073538;28;19951;-78
2022/03/24 03:36:53;;;;;;;;;;;11.20;27.60;;;;;;5062644;28;20534;-78
2022/03/24 03:39:22;;;;;;;;;;;11.20;27.20;;;;;;5064699;28;19932;-78
2022/03/24 03:41:49;;;;;;;;;;;11.20;27.70;;;;;;5084585;28;19924;-78
2022/03/24 03:44:16;;;;;;;;;;;11.10;27.40;;;;;;5070842;28;20269;-78
2022/03/24 03:46:43;;;;;;;;;;;11.20;27.30;;;;;;5069912;28;19924;-78
2022/03/24 03:49:10;;;;;;;;;;;11.20;27.40;;;;;;5073960;28;19929;-79
2022/03/24 03:51:37;;;;;;;;;;;11.20;27.70;;;;;;5056394;28;19992;-78
2022/03/24 03:54:05;;;;;;;;;;;11.20;27.50;;;;;;5059424;28;19929;-79
2022/03/24 03:56:32;;;;;;;;;;;11.10;27.40;;;;;;5079711;28;19974;-78
2022/03/24 03:58:59;;;;;;;;;;;11.20;27.60;;;;;;5081241;28;20269;-78
2022/03/24 04:01:26;;;;;;;;;;;11.10;27.50;;;;;;5071600;28;19924;-79
2022/03/24 04:03:53;;;;;;;;;;;11.10;27.60;;;;;;5062135;28;19928;-79
2022/03/24 04:06:20;;;;;;;;;;;11.00;27.60;;;;;;5072768;28;20450;-78
2022/03/24 04:08:47;;;;;;;;;;;11.00;27.50;;;;;;5077737;28;20204;-79
2022/03/24 04:11:13;;;;;;;;;;;11.00;27.50;;;;;;5078209;28;19999;-78
2022/03/24 04:13:42;;;;;;;;;;;11.10;27.70;;;;;;5061395;28;20356;-78
2022/03/24 04:16:13;;;;;;;;;;;11.00;27.60;;;;;;5070998;28;19947;-78
2022/03/24 04:18:41;;;;;;;;;;;11.00;28.30;;;;;;5070862;28;19950;-78
2022/03/24 04:21:08;;;;;;;;;;;11.00;27.70;;;;;;5061597;28;19929;-79
2022/03/24 04:23:38;;;;;;;;;;;11.00;27.70;;;;;;5074208;28;19928;-79
2022/03/24 04:26:05;;;;;;;;;;;11.00;27.70;;;;;;5058877;28;19936;-77
2022/03/24 04:28:32;;;;;;;;;;;11.00;27.60;;;;;;5065605;28;19924;-78
2022/03/24 04:30:59;;;;;;;;;;;11.00;27.50;;;;;;5078854;28;19947;-78
2022/03/24 04:33:26;;;;;;;;;;;10.90;27.50;;;;;;5067716;28;19924;-79
2022/03/24 04:35:53;;;;;;;;;;;10.90;27.60;;;;;;5074980;28;19925;-79
2022/03/24 04:38:20;;;;;;;;;;;10.90;27.60;;;;;;5066400;28;19909;-78
2022/03/24 04:40:47;;;;;;;;;;;10.90;27.70;;;;;;5071952;28;19986;-78
2022/03/24 04:43:14;;;;;;;;;;;10.90;27.50;;;;;;5082110;28;19928;-78
2022/03/24 04:45:46;;;;;;;;;;;10.90;27.60;;;;;;5068853;28;20440;-78
2022/03/24 04:48:13;;;;;;;;;;;10.90;27.60;;;;;;5068593;28;19925;-78
2022/03/24 04:50:40;;;;;;;;;;;10.90;27.40;;;;;;5054603;28;20301;-78
2022/03/24 04:53:13;;;;;;;;;;;10.90;27.50;;;;;;5059034;28;19928;-79
2022/03/24 04:55:44;;;;;;;;;;;10.90;27.40;;;;;;5073672;28;19924;-78
2022/03/24 04:58:12;;;;;;;;;;;10.90;27.30;;;;;;5070441;28;19925;-78
2022/03/24 05:00:39;;;;;;;;;;;10.90;27.50;;;;;;5077748;28;19925;-79
2022/03/24 05:03:06;;;;;;;;;;;10.90;27.60;;;;;;5060826;28;20003;-78
2022/03/24 05:05:33;;;;;;;;;;;10.90;27.60;;;;;;5072725;28;19982;-78
2022/03/24 05:08:00;;;;;;;;;;;10.80;27.50;;;;;;5076996;28;20388;-78
2022/03/24 05:10:27;;;;;;;;;;;10.80;27.50;;;;;;5078092;28;19947;-78
2022/03/24 05:12:54;;;;;;;;;;;10.90;27.30;;;;;;5075743;28;19932;-79
2022/03/24 05:15:22;;;;;;;;;;;10.90;27.50;;;;;;5079830;28;19924;-79
2022/03/24 05:17:49;;;;;;;;;;;10.90;27.60;;;;;;5069592;28;19931;-78
2022/03/24 05:20:16;;;;;;;;;;;10.80;27.80;;;;;;5078710;28;19929;-77
2022/03/24 05:22:43;;;;;;;;;;;10.80;27.80;;;;;;5072465;28;19955;-78
2022/03/24 05:25:09;;;;;;;;;;;10.70;27.80;;;;;;5071218;28;19929;-79
2022/03/24 05:27:36;;;;;;;;;;;10.70;27.80;;;;;;5054714;28;19925;-78
2022/03/24 05:30:04;;;;;;;;;;;10.70;27.80;;;;;;5068065;28;19912;-78
2022/03/24 05:32:31;;;;;;;;;;;10.60;28.10;;;;;;5057855;28;19925;-78
2022/03/24 05:34:58;;;;;;;;;;;10.70;27.90;;;;;;5082019;28;19932;-78
2022/03/24 05:37:25;;;;;;;;;;;10.70;27.80;;;;;;5077069;28;19928;-78
2022/03/24 05:39:51;;;;;;;;;;;10.60;27.80;;;;;;5062694;28;19925;-79
2022/03/24 05:42:18;;;;;;;;;;;10.60;28.10;;;;;;5063600;28;19947;-78
2022/03/24 05:44:45;;;;;;;;;;;10.60;28.10;;;;;;5068457;28;19931;-78
2022/03/24 05:47:12;;;;;;;;;;;10.60;28.20;;;;;;5073071;28;19929;-79
2022/03/24 05:49:39;;;;;;;;;;;10.70;28.00;;;;;;5065738;28;20388;-78
2022/03/24 05:52:06;;;;;;;;;;;10.60;28.10;;;;;;5074581;28;19968;-79
2022/03/24 05:54:32;;;;;;;;;;;10.60;28.10;;;;;;5074208;28;19925;-79
2022/03/24 05:56:59;;;;;;;;;;;10.60;28.00;;;;;;5065626;28;19994;-78
2022/03/24 05:59:26;;;;;;;;;;;10.60;27.80;;;;;;5070618;28;20274;-78
2022/03/24 06:01:53;;;;;;;;;;;10.70;27.90;;;;;;5075930;28;19931;-78
2022/03/24 06:04:21;;;;;;;;;;;10.70;27.80;;;;;;5072841;28;19925;-79
2022/03/24 06:06:53;;;;;;;;;;;10.60;28.00;;;;;;5062190;28;19929;-78
2022/03/24 06:09:21;;;;;;;;;;;10.70;27.90;;;;;;5073947;28;19924;-77
2022/03/24 06:11:49;;;;;;;;;;;10.70;27.90;;;;;;5065000;28;19984;-77
2022/03/24 06:14:20;;;;;;;;;;;10.70;28.00;;;;;;5071681;28;19924;-77
2022/03/24 06:16:47;;;;;;;;;;;10.70;28.00;;;;;;5076054;28;19924;-78
2022/03/24 06:19:15;;;;;;;;;;;10.70;28.10;;;;;;5068787;28;19931;-78
2022/03/24 06:21:42;;;;;;;;;;;10.80;27.80;;;;;;5070105;28;19925;-79
2022/03/24 06:24:09;;;;;;;;;;;10.80;28.00;;;;;;5066498;28;19925;-78
2022/03/24 06:26:37;;;;;;;;;;;10.80;27.90;;;;;;5076498;28;19950;-78
2022/03/24 06:29:03;;;;;;;;;;;10.80;27.60;;;;;;5077363;28;19928;-78
2022/03/24 06:31:30;;;;;;;;;;;10.90;27.60;;;;;;5064593;28;19982;-78
2022/03/24 06:33:58;;;;;;;;;;;11.00;27.60;;;;;;5069082;28;19908;-78
2022/03/24 06:36:25;;;;;;;;;;;11.00;27.50;;;;;;5087561;28;19925;-78
2022/03/24 06:38:51;;;;;;;;;;;11.00;27.60;;;;;;5075255;28;20346;-80
2022/03/24 06:41:18;;;;;;;;;;;11.10;27.20;;;;;;5054217;28;19929;-77
2022/03/24 06:43:46;;;;;;;;;;;11.10;27.70;;;;;;5062051;28;19928;-78
2022/03/24 06:46:14;;;;;;;;;;;11.10;27.50;;;;;;5053667;28;19948;-78
2022/03/24 06:48:41;;;;;;;;;;;11.10;27.40;;;;;;5058314;28;19990;-78
2022/03/24 06:51:08;;;;;;;;;;;11.20;27.20;;;;;;5070076;28;20377;-79
2022/03/24 06:53:35;;;;;;;;;;;11.20;27.60;;;;;;5071843;28;19924;-78
2022/03/24 06:56:02;;;;;;;;;;;11.30;27.00;;;;;;5075560;28;19947;-79
2022/03/24 06:58:29;;;;;;;;;;;11.30;27.00;;;;;;5075575;28;19928;-77
2022/03/24 07:00:55;;;;;;;;;;;11.40;27.10;;;;;;5069305;28;19925;-79
2022/03/24 07:03:23;;;;;;;;;;;11.40;27.50;;;;;;5070568;28;20307;-79
2022/03/24 07:05:49;;;;;;;;;;;11.40;27.30;;;;;;5077302;28;20461;-79
2022/03/24 07:08:16;;;;;;;;;;;11.50;27.00;;;;;;5070096;28;19925;-77
2022/03/24 07:10:46;;;;;;;;;;;11.60;26.90;;;;;;5072856;28;19929;-79
2022/03/24 07:13:13;;;;;;;;;;;11.70;26.70;;;;;;5074568;28;20442;-76
2022/03/24 07:15:39;;;;;;;;;;;11.80;26.90;;;;;;5076602;28;19936;-79
2022/03/24 07:18:06;;;;;;;;;;;11.80;26.70;;;;;;5078428;28;19932;-78
2022/03/24 07:20:34;;;;;;;;;;;11.90;26.50;;;;;;5074840;28;19974;-78
2022/03/24 07:23:03;;;;;;;;;;;12.00;26.60;;;;;;5077905;28;19924;-79
2022/03/24 07:25:31;;;;;;;;;;;12.20;25.90;;;;;;5081773;28;19951;-77
2022/03/24 07:27:58;;;;;;;;;;;12.30;26.10;;;;;;5071280;28;19925;-78
2022/03/24 07:30:25;;;;;;;;;;;12.50;25.40;;;;;;5077586;28;19940;-76
2022/03/24 07:32:54;;;;;;;;;;;12.60;25.80;;;;;;5074292;28;19990;-78
2022/03/24 07:35:24;;;;;;;;;;;12.70;25.60;;;;;;5072418;28;19997;-80
2022/03/24 07:37:51;;;;;;;;;;;12.80;25.80;;;;;;5070018;28;19933;-78
2022/03/24 07:40:18;;;;;;;;;;;13.00;25.80;;;;;;5077134;28;19932;-76
2022/03/24 07:42:45;;;;;;;;;;;13.10;25.30;;;;;;5079242;28;20446;-77
2022/03/24 07:45:12;;;;;;;;;;;13.20;26.00;;;;;;5057321;28;19925;-80
2022/03/24 07:47:57;;;;;;;;;;;13.30;25.30;;;;;;5064064;28;19929;-79
2022/03/24 07:50:24;;;;;;;;;;;13.50;25.50;;;;;;5077527;28;19928;-79
2022/03/24 07:52:51;;;;;;;;;;;13.60;25.30;;;;;;5079413;28;19947;-79
2022/03/24 07:55:19;;;;;;;;;;;13.60;25.60;;;;;;5074659;28;19946;-80
2022/03/24 07:57:46;;;;;;;;;;;13.80;24.70;;;;;;5074378;28;19928;-80
2022/03/24 08:00:13;;;;;;;3.40;1.58;;;13.90;24.80;;;;;;5074020;28;19924;-79
2022/03/24 08:02:43;;;;;;;3.97;1.50;;;14.00;24.70;;;;;;5071808;28;20060;-77
2022/03/24 08:05:09;;;;;;;;;;;14.10;24.60;;;;;;5062102;28;20083;-79
2022/03/24 08:07:36;;;;;;;;;;;14.30;24.10;;;;;;5071643;28;19927;-76
2022/03/24 08:10:03;;;;;;;;;;;14.40;25.10;;;;;;5065780;28;20300;-79
2022/03/24 08:12:30;;;;;;;;;;;14.50;24.10;;;;;;5074801;28;20376;-78
2022/03/24 08:14:57;;;;;;;;;;;14.60;24.60;;;;;;5075160;28;19970;-78
2022/03/24 08:17:27;;;;;;;;;;;14.70;24.40;;;;;;5069499;28;20069;-77
2022/03/24 08:19:53;;;;;;;;;;;14.80;24.70;;;;;;5069352;28;19920;-79
2022/03/24 08:22:20;;;;;;;;;;;14.90;24.40;;;;;;5060882;28;19979;-77
2022/03/24 08:24:48;;;;;;;;;;;15.10;24.90;;;;;;5079115;28;19933;-79
2022/03/24 08:27:15;;;;;;;;;;;15.30;24.80;;;;;;5078031;28;19925;-77
2022/03/24 08:29:42;;;;;;;;;;;15.50;24.30;;;;;;5073446;28;19921;-79
2022/03/24 08:32:12;;;;;;;;;;;15.60;23.60;;;;;;5070874;28;19970;-78
2022/03/24 08:34:39;;;;;;;;;;;15.80;23.30;;;;;;5067860;28;19924;-79
2022/03/24 08:37:05;;;;;;;;;;;16.00;23.20;;;;;;5055723;28;20132;-79
2022/03/24 08:39:33;;;;;;;;;;;16.10;23.40;;;;;;5073205;28;19921;-79
2022/03/24 08:42:00;;;;;;;;;;;16.20;23.10;;;;;;5065751;28;19928;-78
2022/03/24 08:44:26;;;;;;;;;;;16.30;23.20;;;;;;5061956;28;19987;-79
2022/03/24 08:46:53;;;;;;;;;;;16.40;23.40;;;;;;5070145;28;19970;-78
2022/03/24 08:49:20;;;;;;;;;;;16.60;23.60;;;;;;5066342;28;19940;-77
2022/03/24 08:51:47;;;;;;;;;;;16.70;22.10;;;;;;5065495;28;19933;-78
2022/03/24 08:54:14;;;;;;;;;;;16.80;22.90;;;;;;5069479;28;19920;-79
2022/03/24 08:56:41;;;;;;;;;;;16.90;22.90;;;;;;5061437;28;19921;-77
2022/03/24 08:59:09;;;;;;;;;;;17.10;22.00;;;;;;5063738;28;19956;-76
2022/03/24 09:01:36;;;;;;;;;;;17.20;21.60;;;;;;5067021;28;19974;-78
2022/03/24 09:04:03;;;;;;;;;;;17.30;21.40;;;;;;5053204;28;19920;-79
2022/03/24 09:06:34;;;;;;;;;;;17.30;21.70;;;;;;5055678;28;19944;-77
2022/03/24 09:09:01;;;;;;;;;;;17.40;22.20;;;;;;5080294;28;19928;-79
2022/03/24 09:11:28;;;;;;;;;;;17.50;21.00;;;;;;5063956;28;19924;-78
2022/03/24 09:13:56;;;;;;;;;;;17.60;20.50;;;;;;5061011;28;20343;-78
2022/03/24 09:16:22;;;;;;;;;;;17.70;20.10;;;;;;5071308;28;19920;-78
2022/03/24 09:18:49;;;;;;;;;;;17.80;20.70;;;;;;5071274;28;19909;-77
2022/03/24 09:21:19;;;;;;;;;;;17.80;20.90;;;;;;5078348;28;19924;-78
2022/03/24 09:23:47;;;;;;;;;;;17.90;20.30;;;;;;5069091;28;20451;-78
2022/03/24 09:26:14;;;;;;;;;;;18.10;21.30;;;;;;5071572;28;19928;-78
2022/03/24 09:28:58;;;;;;;;;;;18.30;21.70;;;;;;5067992;28;19920;-78
2022/03/24 09:31:25;;;;;;;;;;;18.50;20.60;;;;;;5075803;28;19946;-78
2022/03/24 09:33:52;;;;;;;;;;;18.60;20.60;;;;;;5057104;28;19928;-79
2022/03/24 09:36:19;;;;;;;;;;;18.60;20.50;;;;;;5071219;28;19927;-77
2022/03/24 09:38:46;;;;;;;;;;;18.80;20.00;;;;;;5081965;28;19986;-79
2022/03/24 09:41:14;;;;;;;;;;;18.80;20.80;;;;;;5061881;28;19967;-79
2022/03/24 09:43:43;;;;;;;;;;;18.90;21.80;;;;;;5072024;28;19921;-78
2022/03/24 09:46:11;;;;;;;;;;;18.90;21.00;;;;;;5072591;28;19920;-78
2022/03/24 09:48:41;;;;;;;;;;;19.00;21.80;;;;;;5078808;28;19921;-79
2022/03/24 09:51:09;;;;;;;;;;;19.20;19.80;;;;;;5078043;28;19920;-79
2022/03/24 09:53:39;;;;;;;;;;;19.30;20.40;;;;;;5073528;28;20343;-78
2022/03/24 09:56:06;;;;;;;;;;;19.40;19.00;;;;;;5075684;28;19924;-79
2022/03/24 09:58:33;;;;;;;;;;;19.50;20.10;;;;;;5071896;28;19920;-79
2022/03/24 10:01:01;;;;;;;;;;;19.50;19.70;;;;;;5070137;28;19928;-79
2022/03/24 10:03:28;;;;;;;;;;;19.70;19.50;;;;;;5077059;28;19984;-79
2022/03/24 10:05:57;;;;;;;;;;;19.80;19.70;;;;;;5077228;28;19926;-78
2022/03/24 10:08:25;;;;;;;;;;;19.90;19.40;;;;;;5075229;28;19921;-78
2022/03/24 10:11:02;;;;;;;;;;;19.90;19.60;;;;;;5075563;28;19927;-78
2022/03/24 10:13:44;;;;;;;;;;;20.20;21.50;;;;;;5081082;28;19928;-79
2022/03/24 10:16:13;;;;;;;;;;;20.40;20.50;;;;;;5057554;28;19925;-78
2022/03/24 10:18:57;;;;;;;;;;;20.30;19.10;;;;;;5060353;28;19928;-78
2022/03/24 10:21:27;;;;;;;;;;;20.40;18.90;;;;;;5069426;28;19924;-78
2022/03/24 10:23:57;;;;;;;;;;;20.40;18.70;;;;;;5077157;28;20303;-79
2022/03/24 10:26:38;;;;;;;;;;;20.30;18.90;;;;;;5076829;28;19920;-78
2022/03/24 10:29:05;;;;;;;;;;;20.40;19.50;;;;;;5079347;28;19905;-78
2022/03/24 10:31:36;;;;;;;;;;;20.40;20.30;;;;;;5080884;28;19963;-78
2022/03/24 10:34:03;;;;;;;;;;;20.60;20.90;;;;;;5073673;28;19928;-78
2022/03/24 10:36:31;;;;;;;;;;;20.70;20.60;;;;;;5067693;28;19956;-78
2022/03/24 10:39:01;;;;;;;;;;;20.90;20.00;;;;;;5068542;28;20026;-79
2022/03/24 10:41:29;;;;;;;;;;;21.00;20.10;;;;;;5080018;28;19924;-78
2022/03/24 10:43:58;;;;;;;;;;;21.00;19.00;;;;;;5070475;28;19921;-77
2022/03/24 10:46:29;;;;;;;;;;;20.90;17.40;;;;;;5066355;28;19920;-79
2022/03/24 10:48:56;;;;;;;;;;;20.70;17.60;;;;;;5079875;28;19936;-78
2022/03/24 10:51:24;;;;;;;;;;;20.90;19.70;;;;;;5072473;28;19921;-79
2022/03/24 10:53:51;;;;;;;;;;;21.10;18.70;;;;;;5058709;28;20376;-79
2022/03/24 10:56:34;;;;;;;4.80;1.63;;;21.20;19.00;;;;;;5081807;28;19920;-77
2022/03/24 10:59:03;;;;;;;2.25;1.50;;;21.20;18.70;;;;;;5080976;28;20558;-78
2022/03/24 11:01:32;;;;;;;2.50;1.88;;;21.30;19.00;;;;;;5074491;28;20084;-77
2022/03/24 11:03:59;;;;;;;2.75;2.47;;;21.40;19.20;;;;;;5072038;28;20061;-78
2022/03/24 11:06:30;;;;;;;3.05;2.30;;;21.50;19.90;;;;;;5070552;28;20056;-77
2022/03/24 11:09:01;;;;;;;3.47;2.97;;;21.50;20.10;;;;;;5073739;28;20501;-77
2022/03/24 11:11:30;;;;;;;7.30;4.07;;;21.40;18.70;;;;;;5071662;28;20063;-79
2022/03/24 11:14:03;;;;;;;4.80;3.67;;;21.20;19.60;;;;;;5070411;28;20049;-77
2022/03/24 11:16:33;;;;;;;5.38;3.60;;;21.30;20.00;;;;;;5056674;28;20060;-78
2022/03/24 11:19:02;;;;;;;7.90;4.32;;;21.30;19.00;;;;;;5074877;28;20049;-78
2022/03/24 11:21:57;;;;;;;5.45;4.00;;;21.20;20.20;;;;;;5076364;28;20079;-78
2022/03/24 11:24:24;;;;;;;4.90;4.30;;;21.20;21.40;;;;;;5074672;28;20139;-79
2022/03/24 11:26:52;;;;;;;5.13;4.45;;;21.40;20.20;;;;;;5080441;28;20129;-78
2022/03/24 11:29:19;;;;;;;4.97;4.50;;;21.50;19.90;;;;;;5061507;28;20052;-78
2022/03/24 11:31:47;;;;;;;;;;;21.50;19.50;;;;;;5072780;28;20072;-78
2022/03/24 11:34:14;;;;;;;;;;;21.50;19.80;;;;;;5058758;28;20373;-78
2022/03/24 11:36:41;;;;;;;;;;;21.30;18.60;;;;;;5067840;28;20343;-79
2022/03/24 11:39:10;;;;;;;;;;;21.20;18.40;;;;;;5082328;28;19928;-80
2022/03/24 11:41:43;;;;;;;;;;;21.40;19.30;;;;;;5068919;28;19924;-78
2022/03/24 11:44:10;;;;;;;;;;;21.60;20.30;;;;;;5080199;28;19920;-78
2022/03/24 11:46:47;;;;;;;;;;;21.60;19.00;;;;;;5066205;28;19921;-79
2022/03/24 11:49:24;;;;;;;;;;;21.70;19.50;;;;;;5076201;28;19924;-78
2022/03/24 11:51:57;;;;;;;;;;;21.80;20.50;;;;;;5092400;28;19924;-79
2022/03/24 11:54:34;;;;;;;;;;;22.10;20.00;;;;;;5069126;28;19928;-79
2022/03/24 11:57:19;;;;;;;;;;;22.20;19.60;;;;;;5065212;28;20574;-79
2022/03/24 11:59:46;;;;;;;;;;;22.40;19.60;;;;;;5061661;28;20372;-78
2022/03/24 12:02:15;;;;;;;;;;;22.10;18.90;;;;;;5072898;28;19904;-79
2022/03/24 12:04:43;;;;;;;;;;;21.90;19.00;;;;;;5062904;28;19944;-78
2022/03/24 12:07:13;;;;;;;;;;;22.00;20.90;;;;;;5065070;28;20299;-78
2022/03/24 12:09:53;;;;;;;;;;;22.20;19.10;;;;;;5069196;28;20350;-79
2022/03/24 12:12:20;;;;;;;;;;;22.30;19.00;;;;;;5067348;28;19974;-78
2022/03/24 12:14:47;;;;;;;;;;;22.40;19.90;;;;;;5071938;28;19943;-79
2022/03/24 12:17:31;;;;;;;;;;;22.40;19.60;;;;;;5083125;28;19928;-78
2022/03/24 12:20:18;;;;;;;7.75;4.78;;;22.50;19.40;;;;;;5069091;28;19928;-79
2022/03/24 12:22:45;;;;;;;5.95;3.80;;;22.50;18.20;;;;;;5074339;28;20053;-78
2022/03/24 12:25:15;;;;;;;4.55;4.15;;;22.70;18.10;;;;;;5068692;28;20111;-79
2022/03/24 12:27:58;;;;;;;7.60;4.30;;;22.60;18.40;;;;;;5077593;28;20053;-79
2022/03/24 12:30:26;;;;;;;7.32;4.65;;;22.80;18.70;;;;;;5061953;28;20057;-78
2022/03/24 12:33:12;;;;;;;6.03;4.18;;;22.70;18.20;;;;;;5064513;28;20052;-78
2022/03/24 12:35:55;;;;;;;6.82;4.00;;;22.70;18.60;;;;;;5073779;28;20052;-79
2022/03/24 12:38:34;;;;;;;5.55;4.03;;;23.00;18.60;;;;;;5068621;28;20076;-78
2022/03/24 12:41:07;;;;;;;4.93;3.95;;;23.20;18.60;;;;;;5070863;28;20053;-79
2022/03/24 12:43:46;;;;;;;4.70;4.20;;;23.40;17.80;;;;;;5060836;28;20045;-79
2022/03/24 12:46:33;;;;;;;5.47;4.20;;;23.50;18.50;;;;;;5068269;28;20110;-78
2022/03/24 12:49:06;;;;;;;5.65;4.55;;;23.60;18.70;;;;;;5064396;28;20139;-78
2022/03/24 12:51:33;;;;;;;;;;;23.60;18.60;;;;;;5081630;28;20059;-78
2022/03/24 12:54:14;;;;;;;;;;;23.60;18.00;;;;;;5075653;28;20432;-79
2022/03/24 12:56:43;;;;;;;;;;;23.60;18.80;;;;;;5077176;28;19920;-77
2022/03/24 12:59:12;;;;;;;;;;;23.70;17.90;;;;;;5080119;28;19928;-78
2022/03/24 13:01:42;;;;;;;;;;;23.70;17.50;;;;;;5063132;28;19920;-79
2022/03/24 13:04:09;;;;;;;;;;;23.50;17.50;;;;;;5068319;28;19950;-79
2022/03/24 13:06:37;;;;;;;;;;;23.60;18.10;;;;;;5076744;28;19911;-79
2022/03/24 13:09:16;;;;;;;;;;;23.60;18.70;;;;;;5072918;28;19943;-78
2022/03/24 13:11:51;;;;;;;;;;;23.80;18.90;;;;;;5062072;28;19920;-78
2022/03/24 13:14:24;;;;;;;;;;;24.10;17.90;;;;;;5074482;28;19920;-78
2022/03/24 13:16:57;;;;;;;;;;;24.00;17.60;;;;;;5060015;28;20007;-78
2022/03/24 13:19:26;;;;;;;5.80;4.80;;;23.90;18.00;;;;;;5074839;28;20493;-79
2022/03/24 13:21:53;;;;;;;5.28;4.20;;;23.70;17.60;;;;;;5070537;28;20064;-79
2022/03/24 13:24:20;;;;;;;;;;;23.80;18.20;;;;;;5067169;28;20057;-78
2022/03/24 13:27:00;;;;;;;6.20;3.90;;;23.60;18.10;;;;;;5062919;28;19921;-80
2022/03/24 13:29:37;;;;;;;6.57;4.50;;;23.90;18.60;;;;;;5060153;28;20059;-79
2022/03/24 13:32:16;;;;;;;4.53;4.07;;;24.00;17.50;;;;;;5065288;28;20102;-78
2022/03/24 13:34:53;;;;;;;8.45;4.18;;;24.00;17.90;;;;;;5068943;28;20497;-79
2022/03/24 13:37:22;;;;;;;4.72;3.85;;;24.20;18.10;;;;;;5075895;28;20048;-78
2022/03/24 13:39:55;;;;;;;7.10;4.75;;;24.10;17.20;;;;;;5061345;28;20061;-78
2022/03/24 13:42:27;;;;;;;6.75;4.43;;;23.80;17.40;;;;;;5060564;28;20056;-78
2022/03/24 13:44:55;;;;;;;7.60;4.40;;;23.80;17.40;;;;;;5076417;28;20061;-79
2022/03/24 13:47:25;;;;;;;5.47;4.38;;;23.90;17.70;;;;;;5062119;28;20290;-78
2022/03/24 13:49:57;;;;;;;5.18;4.10;;;24.10;17.80;;;;;;5066074;28;20045;-79
2022/03/24 13:52:36;;;;;;;8.50;4.28;;;24.00;17.00;;;;;;5063454;28;20076;-78
2022/03/24 13:55:11;;;;;;;6.82;5.00;;;24.20;17.50;;;;;;5075958;28;20057;-78
2022/03/24 13:57:55;;;;;;;8.30;4.60;;;24.40;17.80;;;;;;5067331;28;20044;-77
2022/03/24 14:00:27;;;;;;;7.07;4.30;;;24.50;18.60;;;;;;5067173;28;20037;-78
2022/03/24 14:02:59;;;;;;;6.40;4.55;;;24.50;17.40;;;;;;5058902;28;20057;-78
2022/03/24 14:05:58;;;;;;;7.10;4.93;;;24.50;17.50;;;;;;5078287;28;20075;-78